createdAt,value
2017-07-27T00:00:18.985Z,0
2017-07-27T00:01:19.035Z,0
2017-07-27T00:02:19.046Z,0
2017-07-27T00:03:19.081Z,0
2017-07-27T00:04:19.134Z,0
2017-07-27T00:05:19.157Z,0
2017-07-27T00:06:19.251Z,0
2017-07-27T00:07:19.188Z,0
2017-07-27T00:08:19.286Z,0
2017-07-27T00:09:19.264Z,0
2017-07-27T00:10:19.343Z,0
2017-07-27T00:11:19.366Z,0
2017-07-27T00:12:19.374Z,0
2017-07-27T00:13:19.393Z,0
2017-07-27T00:14:19.496Z,0
2017-07-27T00:15:19.499Z,0
2017-07-27T00:16:19.498Z,0
2017-07-27T00:17:19.573Z,0
2017-07-27T00:18:19.592Z,0
2017-07-27T00:19:19.618Z,0
2017-07-27T00:20:19.683Z,0
2017-07-27T00:21:19.665Z,0
2017-07-27T00:22:19.713Z,0
2017-07-27T00:23:19.794Z,0
2017-07-27T00:24:19.806Z,0
2017-07-27T00:25:19.830Z,0
2017-07-27T00:26:19.846Z,0
2017-07-27T00:27:19.878Z,0
2017-07-27T00:28:20.003Z,0
2017-07-27T00:29:20.006Z,0
2017-07-27T00:30:20.000Z,0
2017-07-27T00:31:20.015Z,0
2017-07-27T00:32:20.097Z,0
2017-07-27T00:33:20.083Z,0
2017-07-27T00:34:20.197Z,0
2017-07-27T00:35:20.192Z,0
2017-07-27T00:36:20.261Z,0
2017-07-27T00:37:20.217Z,0
2017-07-27T00:38:20.287Z,0
2017-07-27T00:39:20.261Z,0
2017-07-27T00:40:20.300Z,0
2017-07-27T00:41:20.384Z,0
2017-07-27T00:42:20.415Z,0
2017-07-27T00:43:20.458Z,0
2017-07-27T00:44:20.506Z,0
2017-07-27T00:45:20.505Z,0
2017-07-27T00:46:20.546Z,0
2017-07-27T00:47:20.608Z,0
2017-07-27T00:48:20.633Z,0
2017-07-27T00:49:20.690Z,0
2017-07-27T00:50:20.660Z,0
2017-07-27T00:51:20.698Z,0
2017-07-27T00:52:20.730Z,0
2017-07-27T00:53:20.789Z,0
2017-07-27T00:54:20.779Z,0
2017-07-27T00:55:20.854Z,0
2017-07-27T00:56:20.908Z,0
2017-07-27T00:57:20.917Z,0
2017-07-27T00:58:20.892Z,0
2017-07-27T00:59:20.984Z,0
2017-07-27T01:00:20.993Z,0
2017-07-27T01:01:21.055Z,0
2017-07-27T01:02:21.059Z,0
2017-07-27T01:03:21.151Z,0
2017-07-27T01:04:21.171Z,0
2017-07-27T01:05:21.158Z,0
2017-07-27T01:06:21.189Z,0
2017-07-27T01:07:21.268Z,0
2017-07-27T01:08:21.300Z,0
2017-07-27T01:09:21.344Z,0
2017-07-27T01:10:21.289Z,0
2017-07-27T01:11:21.350Z,0
2017-07-27T01:12:21.396Z,0
2017-07-27T01:13:21.478Z,0
2017-07-27T01:14:21.445Z,0
2017-07-27T01:15:21.500Z,0
2017-07-27T01:16:21.533Z,0
2017-07-27T01:17:21.653Z,0
2017-07-27T01:18:21.630Z,0
2017-07-27T01:19:21.637Z,0
2017-07-27T01:20:21.623Z,0
2017-07-27T01:21:21.697Z,0
2017-07-27T01:22:21.775Z,0
2017-07-27T01:23:21.759Z,0
2017-07-27T01:24:21.792Z,0
2017-07-27T01:25:21.839Z,0
2017-07-27T01:26:21.882Z,0
2017-07-27T01:27:21.933Z,0
2017-07-27T01:28:21.941Z,0
2017-07-27T01:29:21.989Z,0
2017-07-27T01:30:21.997Z,0
2017-07-27T01:31:22.068Z,0
2017-07-27T01:32:22.052Z,0
2017-07-27T01:33:22.112Z,0
2017-07-27T01:34:22.101Z,0
2017-07-27T01:35:22.170Z,0
2017-07-27T01:36:22.228Z,0
2017-07-27T01:37:22.293Z,0
2017-07-27T01:38:22.269Z,0
2017-07-27T01:39:22.336Z,0
2017-07-27T01:40:22.357Z,0
2017-07-27T01:41:22.368Z,0
2017-07-27T01:42:22.409Z,0
2017-07-27T01:43:22.437Z,0
2017-07-27T01:44:22.496Z,0
2017-07-27T01:45:22.561Z,0
2017-07-27T01:46:22.603Z,0
2017-07-27T01:47:22.588Z,0
2017-07-27T01:48:22.624Z,0
2017-07-27T01:49:22.625Z,0
2017-07-27T01:50:22.647Z,0
2017-07-27T01:51:22.794Z,0
2017-07-27T01:52:22.744Z,0
2017-07-27T01:53:22.772Z,0
2017-07-27T01:54:22.840Z,0
2017-07-27T01:55:22.869Z,0
2017-07-27T01:56:22.875Z,0
2017-07-27T01:57:22.936Z,0
2017-07-27T01:58:22.993Z,0
2017-07-27T01:59:22.994Z,0
2017-07-27T02:00:23.224Z,0
2017-07-27T02:01:23.055Z,0
2017-07-27T02:02:23.110Z,0
2017-07-27T02:03:23.130Z,0
2017-07-27T02:04:23.195Z,0
2017-07-27T02:05:23.172Z,0
2017-07-27T02:06:23.238Z,0
2017-07-27T02:07:23.267Z,0
2017-07-27T02:08:23.270Z,0
2017-07-27T02:09:23.365Z,0
2017-07-27T02:10:23.398Z,0
2017-07-27T02:11:23.394Z,0
2017-07-27T02:12:23.466Z,0
2017-07-27T02:13:23.499Z,0
2017-07-27T02:14:23.561Z,0
2017-07-27T02:15:23.532Z,0
2017-07-27T02:16:23.548Z,0
2017-07-27T02:17:23.541Z,0
2017-07-27T02:18:23.638Z,0
2017-07-27T02:19:23.665Z,0
2017-07-27T02:20:23.712Z,0
2017-07-27T02:21:23.744Z,0
2017-07-27T02:22:23.804Z,0
2017-07-27T02:23:23.743Z,0
2017-07-27T02:24:23.782Z,0
2017-07-27T02:25:23.905Z,0
2017-07-27T02:26:23.899Z,0
2017-07-27T02:27:23.915Z,0
2017-07-27T02:28:24.001Z,0
2017-07-27T02:29:24.003Z,0
2017-07-27T02:30:24.020Z,0
2017-07-27T02:31:24.043Z,0
2017-07-27T02:32:24.057Z,0
2017-07-27T02:33:24.170Z,0
2017-07-27T02:34:24.197Z,0
2017-07-27T02:35:24.172Z,0
2017-07-27T02:36:24.212Z,0
2017-07-27T02:37:24.273Z,0
2017-07-27T02:38:24.277Z,0
2017-07-27T02:39:24.311Z,0
2017-07-27T02:40:24.367Z,0
2017-07-27T02:41:24.399Z,0
2017-07-27T02:42:24.403Z,0
2017-07-27T02:43:24.503Z,0
2017-07-27T02:44:24.496Z,0
2017-07-27T02:45:24.559Z,4
2017-07-27T02:46:24.538Z,4
2017-07-27T02:47:24.610Z,4
2017-07-27T02:48:24.646Z,0
2017-07-27T02:49:24.675Z,4
2017-07-27T02:50:24.669Z,4
2017-07-27T02:51:24.745Z,4
2017-07-27T02:52:24.777Z,4
2017-07-27T02:53:24.825Z,8
2017-07-27T02:54:24.792Z,8
2017-07-27T02:55:24.899Z,8
2017-07-27T02:56:24.848Z,8
2017-07-27T02:57:24.911Z,12
2017-07-27T02:58:24.990Z,12
2017-07-27T02:59:25.006Z,16
2017-07-27T03:00:25.052Z,16
2017-07-27T03:01:25.105Z,20
2017-07-27T03:02:25.109Z,20
2017-07-27T03:03:25.165Z,20
2017-07-27T03:04:25.207Z,28
2017-07-27T03:05:25.195Z,28
2017-07-27T03:06:25.242Z,32
2017-07-27T03:07:25.303Z,36
2017-07-27T03:08:25.299Z,40
2017-07-27T03:09:25.300Z,48
2017-07-27T03:10:25.383Z,52
2017-07-27T03:11:25.349Z,56
2017-07-27T03:12:25.434Z,60
2017-07-27T03:13:25.433Z,64
2017-07-27T03:14:25.447Z,72
2017-07-27T03:15:25.538Z,76
2017-07-27T03:16:25.590Z,84
2017-07-27T03:17:25.598Z,92
2017-07-27T03:18:25.632Z,96
2017-07-27T03:19:25.669Z,108
2017-07-27T03:20:25.692Z,112
2017-07-27T03:21:25.701Z,120
2017-07-27T03:22:25.775Z,132
2017-07-27T03:23:25.783Z,140
2017-07-27T03:24:25.825Z,148
2017-07-27T03:25:25.890Z,160
2017-07-27T03:26:25.894Z,168
2017-07-27T03:27:25.996Z,180
2017-07-27T03:28:25.959Z,192
2017-07-27T03:29:25.966Z,204
2017-07-27T03:30:26.055Z,216
2017-07-27T03:31:26.061Z,232
2017-07-27T03:32:26.098Z,248
2017-07-27T03:33:26.149Z,264
2017-07-27T03:34:26.150Z,276
2017-07-27T03:35:26.184Z,288
2017-07-27T03:36:26.194Z,300
2017-07-27T03:37:26.304Z,308
2017-07-27T03:38:26.298Z,320
2017-07-27T03:39:26.295Z,336
2017-07-27T03:40:26.404Z,348
2017-07-27T03:41:26.409Z,360
2017-07-27T03:42:26.449Z,372
2017-07-27T03:43:26.457Z,380
2017-07-27T03:44:26.506Z,396
2017-07-27T03:45:26.547Z,408
2017-07-27T03:46:26.600Z,420
2017-07-27T03:47:26.611Z,432
2017-07-27T03:48:26.642Z,448
2017-07-27T03:49:26.627Z,456
2017-07-27T03:50:26.701Z,472
2017-07-27T03:51:26.711Z,484
2017-07-27T03:52:26.709Z,492
2017-07-27T03:53:26.743Z,508
2017-07-27T03:54:26.807Z,520
2017-07-27T03:55:26.901Z,536
2017-07-27T03:56:26.897Z,556
2017-07-27T03:57:26.942Z,576
2017-07-27T03:58:26.998Z,592
2017-07-27T03:59:26.985Z,608
2017-07-27T04:00:27.040Z,632
2017-07-27T04:01:27.005Z,652
2017-07-27T04:02:27.040Z,676
2017-07-27T04:03:27.020Z,696
2017-07-27T04:04:27.091Z,724
2017-07-27T04:05:27.233Z,756
2017-07-27T04:06:27.155Z,792
2017-07-27T04:07:27.173Z,828
2017-07-27T04:08:27.232Z,860
2017-07-27T04:09:27.239Z,884
2017-07-27T04:10:27.539Z,920
2017-07-27T04:11:27.328Z,964
2017-07-27T04:12:27.333Z,1012
2017-07-27T04:13:27.392Z,1052
2017-07-27T04:14:27.422Z,1080
2017-07-27T04:15:27.457Z,1100
2017-07-27T04:16:27.468Z,1128
2017-07-27T04:17:27.515Z,1132
2017-07-27T04:18:27.553Z,1132
2017-07-27T04:19:27.597Z,1184
2017-07-27T04:20:27.621Z,1248
2017-07-27T04:21:27.654Z,1308
2017-07-27T04:22:27.672Z,1376
2017-07-27T04:23:27.724Z,1420
2017-07-27T04:24:27.741Z,1440
2017-07-27T04:25:27.771Z,1512
2017-07-27T04:26:27.810Z,1564
2017-07-27T04:27:27.842Z,1628
2017-07-27T04:28:27.875Z,1712
2017-07-27T04:29:27.899Z,1760
2017-07-27T04:30:27.944Z,1784
2017-07-27T04:31:27.953Z,1832
2017-07-27T04:32:28.003Z,1916
2017-07-27T04:33:28.028Z,2004
2017-07-27T04:34:28.061Z,2076
2017-07-27T04:35:28.100Z,2152
2017-07-27T04:36:28.154Z,2280
2017-07-27T04:37:28.159Z,2420
2017-07-27T04:38:28.199Z,2468
2017-07-27T04:39:28.236Z,2504
2017-07-27T04:40:28.261Z,2576
2017-07-27T04:41:28.303Z,2616
2017-07-27T04:42:28.336Z,2624
2017-07-27T04:43:28.364Z,2632
2017-07-27T04:44:28.409Z,2644
2017-07-27T04:45:28.429Z,2648
2017-07-27T04:46:28.472Z,2648
2017-07-27T04:47:28.495Z,2652
2017-07-27T04:48:28.547Z,2688
2017-07-27T04:49:28.594Z,2728
2017-07-27T04:50:28.595Z,2752
2017-07-27T04:51:28.637Z,2788
2017-07-27T04:52:28.674Z,2836
2017-07-27T04:53:28.686Z,2864
2017-07-27T04:54:28.738Z,2880
2017-07-27T04:55:28.765Z,2872
2017-07-27T04:56:28.803Z,2848
2017-07-27T04:57:28.817Z,2816
2017-07-27T04:58:28.860Z,2772
2017-07-27T04:59:28.908Z,2848
2017-07-27T05:00:28.898Z,2880
2017-07-27T05:01:28.949Z,2884
2017-07-27T05:02:29.194Z,2892
2017-07-27T05:03:29.016Z,2900
2017-07-27T05:04:29.063Z,2912
2017-07-27T05:05:29.120Z,2924
2017-07-27T05:06:29.119Z,2880
2017-07-27T05:07:29.184Z,2768
2017-07-27T05:08:29.831Z,2792
2017-07-27T05:09:29.221Z,3016
2017-07-27T05:10:29.439Z,3092
2017-07-27T05:11:29.290Z,3140
2017-07-27T05:12:29.325Z,3216
2017-07-27T05:13:29.596Z,3272
2017-07-27T05:14:29.402Z,3432
2017-07-27T05:15:29.436Z,3496
2017-07-27T05:16:29.485Z,3560
2017-07-27T05:17:29.504Z,3672
2017-07-27T05:18:29.546Z,3792
2017-07-27T05:19:29.574Z,3912
2017-07-27T05:20:29.606Z,4108
2017-07-27T05:21:29.643Z,4292
2017-07-27T05:22:29.671Z,4516
2017-07-27T05:23:29.674Z,4960
2017-07-27T05:24:29.722Z,5452
2017-07-27T05:25:29.772Z,6104
2017-07-27T05:26:29.794Z,7080
2017-07-27T05:27:29.830Z,7008
2017-07-27T05:28:29.859Z,8184
2017-07-27T05:29:29.902Z,8664
2017-07-27T05:30:30.295Z,9660
2017-07-27T05:31:29.990Z,8920
2017-07-27T05:32:30.324Z,6324
2017-07-27T05:33:30.055Z,5656
2017-07-27T05:34:30.082Z,7264
2017-07-27T05:35:30.329Z,8756
2017-07-27T05:36:30.151Z,7652
2017-07-27T05:37:30.185Z,7232
2017-07-27T05:38:30.200Z,7316
2017-07-27T05:39:30.251Z,6868
2017-07-27T05:40:30.389Z,6516
2017-07-27T05:41:30.334Z,6632
2017-07-27T05:42:30.354Z,6828
2017-07-27T05:43:30.404Z,7708
2017-07-27T05:44:30.435Z,9664
2017-07-27T05:45:30.566Z,8776
2017-07-27T05:46:30.508Z,7744
2017-07-27T05:47:30.533Z,7304
2017-07-27T05:48:30.586Z,6644
2017-07-27T05:49:30.608Z,8732
2017-07-27T05:50:30.657Z,14444
2017-07-27T05:51:30.688Z,5756
2017-07-27T05:52:30.706Z,5368
2017-07-27T05:53:30.753Z,5496
2017-07-27T05:54:30.798Z,5288
2017-07-27T05:55:30.832Z,5456
2017-07-27T05:56:30.869Z,7140
2017-07-27T05:57:30.908Z,6232
2017-07-27T05:58:30.961Z,6980
2017-07-27T05:59:30.982Z,4044
2017-07-27T06:00:31.010Z,4016
2017-07-27T06:01:31.049Z,5200
2017-07-27T06:02:31.071Z,6480
2017-07-27T06:03:31.125Z,4908
2017-07-27T06:04:31.146Z,4560
2017-07-27T06:05:31.207Z,5332
2017-07-27T06:06:31.217Z,5600
2017-07-27T06:07:31.272Z,5804
2017-07-27T06:08:31.289Z,5568
2017-07-27T06:09:31.328Z,5372
2017-07-27T06:10:31.371Z,5240
2017-07-27T06:11:31.421Z,5100
2017-07-27T06:12:31.439Z,4996
2017-07-27T06:13:31.492Z,4676
2017-07-27T06:14:31.518Z,5436
2017-07-27T06:15:31.560Z,5632
2017-07-27T06:16:31.618Z,5560
2017-07-27T06:17:31.618Z,4888
2017-07-27T06:18:31.665Z,9240
2017-07-27T06:19:31.702Z,14484
2017-07-27T06:20:31.741Z,15116
2017-07-27T06:21:31.748Z,19776
2017-07-27T06:22:31.818Z,26688
2017-07-27T06:23:31.849Z,27840
2017-07-27T06:24:31.929Z,23648
2017-07-27T06:25:31.935Z,16832
2017-07-27T06:26:31.953Z,12140
2017-07-27T06:27:31.981Z,10932
2017-07-27T06:28:32.021Z,11040
2017-07-27T06:29:32.087Z,11204
2017-07-27T06:30:32.406Z,11152
2017-07-27T06:31:32.136Z,11088
2017-07-27T06:32:32.194Z,11012
2017-07-27T06:33:32.243Z,10864
2017-07-27T06:34:32.245Z,10824
2017-07-27T06:35:32.296Z,10748
2017-07-27T06:36:32.344Z,10576
2017-07-27T06:37:32.353Z,9880
2017-07-27T06:38:32.431Z,10480
2017-07-27T06:39:32.444Z,10588
2017-07-27T06:40:32.591Z,10404
2017-07-27T06:41:32.540Z,10516
2017-07-27T06:42:32.592Z,10400
2017-07-27T06:43:32.595Z,10340
2017-07-27T06:44:32.664Z,10396
2017-07-27T06:45:32.688Z,10372
2017-07-27T06:46:32.739Z,10296
2017-07-27T06:47:32.796Z,10300
2017-07-27T06:48:32.892Z,10296
2017-07-27T06:49:32.869Z,10252
2017-07-27T06:50:33.066Z,10220
2017-07-27T06:51:32.932Z,10164
2017-07-27T06:52:32.983Z,10240
2017-07-27T06:53:33.049Z,10312
2017-07-27T06:54:33.088Z,10268
2017-07-27T06:55:33.156Z,10200
2017-07-27T06:56:33.169Z,10152
2017-07-27T06:57:33.215Z,10112
2017-07-27T06:58:33.249Z,10068
2017-07-27T06:59:33.288Z,10088
2017-07-27T07:00:33.340Z,10088
2017-07-27T07:01:33.373Z,10056
2017-07-27T07:02:33.416Z,10044
2017-07-27T07:03:33.464Z,10008
2017-07-27T07:04:33.520Z,10004
2017-07-27T07:05:33.528Z,10112
2017-07-27T07:06:33.620Z,10056
2017-07-27T07:07:33.633Z,10024
2017-07-27T07:08:33.688Z,10040
2017-07-27T07:09:33.723Z,10024
2017-07-27T07:10:33.783Z,10036
2017-07-27T07:11:33.814Z,9912
2017-07-27T07:12:33.858Z,10012
2017-07-27T07:13:33.898Z,10024
2017-07-27T07:14:33.945Z,10044
2017-07-27T07:15:33.988Z,10040
2017-07-27T07:16:34.122Z,9988
2017-07-27T07:17:34.068Z,10116
2017-07-27T07:18:34.116Z,10060
2017-07-27T07:19:34.132Z,10204
2017-07-27T07:20:34.173Z,10264
2017-07-27T07:21:34.353Z,10244
2017-07-27T07:22:34.292Z,10084
2017-07-27T07:23:34.364Z,9936
2017-07-27T07:24:34.394Z,9868
2017-07-27T07:25:34.436Z,9908
2017-07-27T07:26:34.738Z,9880
2017-07-27T07:27:34.500Z,9984
2017-07-27T07:28:34.537Z,10068
2017-07-27T07:29:34.596Z,10028
2017-07-27T07:30:34.654Z,9976
2017-07-27T07:31:34.695Z,10056
2017-07-27T07:32:34.741Z,10228
2017-07-27T07:33:34.763Z,10324
2017-07-27T07:34:34.824Z,10512
2017-07-27T07:35:34.846Z,10928
2017-07-27T07:36:34.919Z,11488
2017-07-27T07:37:34.943Z,12164
2017-07-27T07:38:35.000Z,13728
2017-07-27T07:39:35.035Z,16800
2017-07-27T07:40:35.090Z,20960
2017-07-27T07:41:35.235Z,23936
2017-07-27T07:42:35.192Z,27872
2017-07-27T07:43:35.223Z,31488
2017-07-27T07:44:35.281Z,33568
2017-07-27T07:45:35.317Z,35424
2017-07-27T07:46:35.344Z,34656
2017-07-27T07:47:35.397Z,35648
2017-07-27T07:48:35.437Z,38784
2017-07-27T07:49:35.488Z,41856
2017-07-27T07:50:35.547Z,45280
2017-07-27T07:51:35.576Z,47520
2017-07-27T07:52:35.640Z,50144
2017-07-27T07:53:35.671Z,51584
2017-07-27T07:54:35.724Z,51456
2017-07-27T07:55:35.756Z,51456
2017-07-27T07:56:35.805Z,49920
2017-07-27T07:57:35.846Z,49920
2017-07-27T07:58:35.898Z,47680
2017-07-27T07:59:35.950Z,48704
2017-07-27T08:00:35.955Z,51840
2017-07-27T08:01:36.019Z,52256
2017-07-27T08:02:36.094Z,49856
2017-07-27T08:03:36.147Z,47328
2017-07-27T08:04:36.168Z,45440
2017-07-27T08:05:36.235Z,46368
2017-07-27T08:06:36.267Z,48544
2017-07-27T08:07:36.325Z,49760
2017-07-27T08:08:36.395Z,50368
2017-07-27T08:09:36.421Z,49376
2017-07-27T08:10:36.448Z,49632
2017-07-27T08:11:36.499Z,49856
2017-07-27T08:12:36.546Z,45056
2017-07-27T08:13:36.578Z,45248
2017-07-27T08:14:36.655Z,49664
2017-07-27T08:15:36.706Z,50016
2017-07-27T08:16:36.762Z,51392
2017-07-27T08:17:37.010Z,51328
2017-07-27T08:18:36.831Z,51392
2017-07-27T08:19:36.907Z,50720
2017-07-27T08:20:36.914Z,50848
2017-07-27T08:21:36.959Z,50848
2017-07-27T08:22:37.110Z,49184
2017-07-27T08:23:37.048Z,48448
2017-07-27T08:24:37.116Z,45184
2017-07-27T08:25:37.164Z,40768
2017-07-27T08:26:37.214Z,40320
2017-07-27T08:27:37.418Z,43264
2017-07-27T08:28:37.298Z,46080
2017-07-27T08:29:37.363Z,49312
2017-07-27T08:30:37.377Z,51328
2017-07-27T08:31:37.443Z,53472
2017-07-27T08:32:37.619Z,53888
2017-07-27T08:33:37.546Z,52704
2017-07-27T08:34:37.578Z,53440
2017-07-27T08:35:37.615Z,52512
2017-07-27T08:36:37.697Z,53280
2017-07-27T08:37:37.750Z,57536
2017-07-27T08:38:37.753Z,53600
2017-07-27T08:39:37.814Z,53632
2017-07-27T08:40:37.858Z,48480
2017-07-27T08:41:37.929Z,48448
2017-07-27T08:42:37.965Z,38144
2017-07-27T08:43:37.995Z,29248
2017-07-27T08:44:38.051Z,20224
2017-07-27T08:45:38.068Z,17312
2017-07-27T08:46:38.167Z,16064
2017-07-27T08:47:38.206Z,16448
2017-07-27T08:48:38.258Z,17824
2017-07-27T08:49:38.290Z,18080
2017-07-27T08:50:38.346Z,16960
2017-07-27T08:51:38.386Z,16512
2017-07-27T08:52:38.449Z,16320
2017-07-27T08:53:38.484Z,15776
2017-07-27T08:54:38.521Z,15392
2017-07-27T08:55:38.555Z,15360
2017-07-27T08:56:38.621Z,15424
2017-07-27T08:57:38.668Z,14812
2017-07-27T08:58:38.725Z,14624
2017-07-27T08:59:38.769Z,14308
2017-07-27T09:00:38.790Z,14036
2017-07-27T09:01:38.856Z,13956
2017-07-27T09:02:38.896Z,14268
2017-07-27T09:03:38.939Z,14672
2017-07-27T09:04:38.958Z,14552
2017-07-27T09:05:39.019Z,14252
2017-07-27T09:06:39.069Z,14272
2017-07-27T09:07:39.113Z,14636
2017-07-27T09:08:39.158Z,15648
2017-07-27T09:09:39.173Z,16192
2017-07-27T09:10:39.238Z,16384
2017-07-27T09:11:39.269Z,15392
2017-07-27T09:12:39.317Z,16960
2017-07-27T09:13:39.495Z,26688
2017-07-27T09:14:39.419Z,26560
2017-07-27T09:15:39.458Z,24576
2017-07-27T09:16:39.509Z,19424
2017-07-27T09:17:39.561Z,21280
2017-07-27T09:18:39.723Z,20128
2017-07-27T09:19:39.637Z,22080
2017-07-27T09:20:39.669Z,23872
2017-07-27T09:21:39.722Z,21504
2017-07-27T09:22:39.746Z,23680
2017-07-27T09:23:40.089Z,23744
2017-07-27T09:24:39.853Z,21088
2017-07-27T09:25:39.896Z,17888
2017-07-27T09:26:39.948Z,17376
2017-07-27T09:27:39.958Z,22112
2017-07-27T09:28:40.016Z,21440
2017-07-27T09:29:40.068Z,20960
2017-07-27T09:30:40.137Z,23328
2017-07-27T09:31:40.175Z,22144
2017-07-27T09:32:40.198Z,17664
2017-07-27T09:33:40.274Z,13952
2017-07-27T09:34:40.310Z,18848
2017-07-27T09:35:40.355Z,12928
2017-07-27T09:36:40.418Z,12460
2017-07-27T09:37:40.436Z,11020
2017-07-27T09:38:40.479Z,9372
2017-07-27T09:39:40.524Z,8168
2017-07-27T09:40:40.559Z,7896
2017-07-27T09:41:40.635Z,9056
2017-07-27T09:42:40.683Z,11500
2017-07-27T09:43:40.744Z,14836
2017-07-27T09:44:40.756Z,16352
2017-07-27T09:45:40.804Z,17440
2017-07-27T09:46:40.857Z,17216
2017-07-27T09:47:40.895Z,16544
2017-07-27T09:48:40.922Z,16896
2017-07-27T09:49:40.981Z,17760
2017-07-27T09:50:41.034Z,18240
2017-07-27T09:51:41.083Z,17536
2017-07-27T09:52:41.107Z,16160
2017-07-27T09:53:41.164Z,14756
2017-07-27T09:54:41.193Z,14160
2017-07-27T09:55:41.255Z,15680
2017-07-27T09:56:41.276Z,17760
2017-07-27T09:57:41.652Z,17728
2017-07-27T09:58:41.379Z,16704
2017-07-27T09:59:41.414Z,14432
2017-07-27T10:00:41.464Z,13596
2017-07-27T10:01:41.507Z,13020
2017-07-27T10:02:41.570Z,12576
2017-07-27T10:03:41.586Z,12084
2017-07-27T10:04:41.642Z,11572
2017-07-27T10:05:41.680Z,11092
2017-07-27T10:06:41.724Z,10692
2017-07-27T10:07:41.907Z,10196
2017-07-27T10:08:41.782Z,9532
2017-07-27T10:09:41.834Z,8884
2017-07-27T10:10:41.890Z,8508
2017-07-27T10:11:41.940Z,8360
2017-07-27T10:12:42.125Z,8300
2017-07-27T10:13:42.004Z,8104
2017-07-27T10:14:42.033Z,7992
2017-07-27T10:15:42.100Z,7928
2017-07-27T10:16:42.142Z,7820
2017-07-27T10:17:42.184Z,7860
2017-07-27T10:18:42.195Z,8180
2017-07-27T10:19:42.251Z,8504
2017-07-27T10:20:42.285Z,8068
2017-07-27T10:21:42.345Z,7368
2017-07-27T10:22:42.372Z,6732
2017-07-27T10:23:42.410Z,6112
2017-07-27T10:24:42.472Z,5492
2017-07-27T10:25:42.488Z,5000
2017-07-27T10:26:42.742Z,4676
2017-07-27T10:27:42.580Z,4532
2017-07-27T10:28:42.619Z,4440
2017-07-27T10:29:42.670Z,4340
2017-07-27T10:30:42.699Z,4232
2017-07-27T10:31:42.741Z,4144
2017-07-27T10:32:42.789Z,3996
2017-07-27T10:33:42.839Z,3732
2017-07-27T10:34:42.867Z,3416
2017-07-27T10:35:42.911Z,3160
2017-07-27T10:36:42.961Z,2984
2017-07-27T10:37:42.985Z,2808
2017-07-27T10:38:43.034Z,2640
2017-07-27T10:39:43.062Z,2516
2017-07-27T10:40:43.070Z,2468
2017-07-27T10:41:43.144Z,2452
2017-07-27T10:42:43.167Z,2464
2017-07-27T10:43:43.200Z,2524
2017-07-27T10:44:43.281Z,2520
2017-07-27T10:45:43.297Z,2496
2017-07-27T10:46:43.333Z,2480
2017-07-27T10:47:43.363Z,2504
2017-07-27T10:48:43.420Z,2624
2017-07-27T10:49:43.460Z,2840
2017-07-27T10:50:43.474Z,3180
2017-07-27T10:51:43.517Z,3588
2017-07-27T10:52:43.578Z,4024
2017-07-27T10:53:43.593Z,4424
2017-07-27T10:54:43.643Z,4572
2017-07-27T10:55:43.679Z,4748
2017-07-27T10:56:43.719Z,5112
2017-07-27T10:57:43.773Z,5616
2017-07-27T10:58:43.791Z,6136
2017-07-27T10:59:43.853Z,6548
2017-07-27T11:00:43.899Z,6980
2017-07-27T11:01:43.915Z,7160
2017-07-27T11:02:43.951Z,7076
2017-07-27T11:03:44.113Z,7004
2017-07-27T11:04:44.070Z,6840
2017-07-27T11:05:44.079Z,6416
2017-07-27T11:06:44.137Z,5928
2017-07-27T11:07:44.127Z,5252
2017-07-27T11:08:44.271Z,4684
2017-07-27T11:09:44.230Z,4336
2017-07-27T11:10:44.281Z,4136
2017-07-27T11:11:44.281Z,3936
2017-07-27T11:12:44.340Z,3840
2017-07-27T11:13:44.513Z,3884
2017-07-27T11:14:44.416Z,3924
2017-07-27T11:15:44.459Z,4080
2017-07-27T11:16:44.477Z,4040
2017-07-27T11:17:44.519Z,3900
2017-07-27T11:18:44.573Z,3804
2017-07-27T11:19:44.595Z,3692
2017-07-27T11:20:44.638Z,3832
2017-07-27T11:21:44.700Z,4284
2017-07-27T11:22:44.727Z,4580
2017-07-27T11:23:44.766Z,4620
2017-07-27T11:24:44.770Z,4620
2017-07-27T11:25:44.836Z,4500
2017-07-27T11:26:44.874Z,4360
2017-07-27T11:27:44.897Z,3992
2017-07-27T11:28:44.938Z,3692
2017-07-27T11:29:44.974Z,3568
2017-07-27T11:30:45.030Z,3632
2017-07-27T11:31:45.059Z,3712
2017-07-27T11:32:45.112Z,3740
2017-07-27T11:33:45.127Z,3720
2017-07-27T11:34:45.184Z,3536
2017-07-27T11:35:45.208Z,3392
2017-07-27T11:36:45.255Z,3284
2017-07-27T11:37:45.264Z,2840
2017-07-27T11:38:45.335Z,2676
2017-07-27T11:39:45.386Z,2676
2017-07-27T11:40:45.372Z,2584
2017-07-27T11:41:45.452Z,2420
2017-07-27T11:42:45.492Z,2500
2017-07-27T11:43:45.527Z,2628
2017-07-27T11:44:45.525Z,2888
2017-07-27T11:45:45.586Z,3184
2017-07-27T11:46:45.637Z,3520
2017-07-27T11:47:45.682Z,3900
2017-07-27T11:48:45.698Z,4196
2017-07-27T11:49:45.738Z,4360
2017-07-27T11:50:45.828Z,4492
2017-07-27T11:51:45.826Z,4576
2017-07-27T11:52:45.864Z,4528
2017-07-27T11:53:45.884Z,4192
2017-07-27T11:54:45.929Z,3580
2017-07-27T11:55:46.004Z,3036
2017-07-27T11:56:46.031Z,2824
2017-07-27T11:57:46.033Z,2344
2017-07-27T11:58:46.085Z,2016
2017-07-27T11:59:46.113Z,2028
2017-07-27T12:00:46.166Z,3172
2017-07-27T12:01:46.203Z,3428
2017-07-27T12:02:46.204Z,3744
2017-07-27T12:03:46.284Z,3588
2017-07-27T12:04:46.307Z,3308
2017-07-27T12:05:46.399Z,2888
2017-07-27T12:06:46.457Z,3000
2017-07-27T12:07:46.404Z,3336
2017-07-27T12:08:46.452Z,4428
2017-07-27T12:09:46.490Z,5144
2017-07-27T12:10:46.532Z,5652
2017-07-27T12:11:46.564Z,5664
2017-07-27T12:12:46.608Z,6544
2017-07-27T12:13:46.656Z,7904
2017-07-27T12:14:46.666Z,8916
2017-07-27T12:15:46.751Z,8584
2017-07-27T12:16:46.774Z,7112
2017-07-27T12:17:46.783Z,5912
2017-07-27T12:18:46.816Z,4732
2017-07-27T12:19:46.866Z,4948
2017-07-27T12:20:46.910Z,4424
2017-07-27T12:21:46.951Z,4664
2017-07-27T12:22:47.004Z,5316
2017-07-27T12:23:47.016Z,5936
2017-07-27T12:24:47.045Z,6520
2017-07-27T12:25:47.108Z,7296
2017-07-27T12:26:47.131Z,7232
2017-07-27T12:27:47.167Z,7384
2017-07-27T12:28:47.213Z,9404
2017-07-27T12:29:47.247Z,10704
2017-07-27T12:30:47.266Z,10460
2017-07-27T12:31:47.313Z,9768
2017-07-27T12:32:47.365Z,8824
2017-07-27T12:33:47.392Z,7728
2017-07-27T12:34:47.400Z,7016
2017-07-27T12:35:47.473Z,6868
2017-07-27T12:36:47.519Z,6252
2017-07-27T12:37:47.532Z,5540
2017-07-27T12:38:47.595Z,4552
2017-07-27T12:39:47.616Z,3612
2017-07-27T12:40:47.665Z,2892
2017-07-27T12:41:47.705Z,3252
2017-07-27T12:42:47.745Z,4336
2017-07-27T12:43:47.771Z,5360
2017-07-27T12:44:47.793Z,5940
2017-07-27T12:45:47.846Z,4796
2017-07-27T12:46:47.890Z,3988
2017-07-27T12:47:47.914Z,3480
2017-07-27T12:48:47.970Z,2872
2017-07-27T12:49:47.996Z,2748
2017-07-27T12:50:48.045Z,3184
2017-07-27T12:51:48.078Z,3768
2017-07-27T12:52:48.118Z,3716
2017-07-27T12:53:48.154Z,3732
2017-07-27T12:54:48.170Z,3064
2017-07-27T12:55:48.205Z,2748
2017-07-27T12:56:48.244Z,1980
2017-07-27T12:57:48.296Z,1584
2017-07-27T12:58:48.319Z,1724
2017-07-27T12:59:48.363Z,2116
2017-07-27T13:00:48.407Z,2132
2017-07-27T13:01:48.460Z,2944
2017-07-27T13:02:48.491Z,3140
2017-07-27T13:03:48.736Z,2700
2017-07-27T13:04:48.571Z,2872
2017-07-27T13:05:48.791Z,3540
2017-07-27T13:06:48.931Z,4340
2017-07-27T13:07:48.648Z,4896
2017-07-27T13:08:48.717Z,5508
2017-07-27T13:09:48.738Z,6408
2017-07-27T13:10:48.997Z,6868
2017-07-27T13:11:48.815Z,6816
2017-07-27T13:12:48.826Z,6656
2017-07-27T13:13:48.900Z,6316
2017-07-27T13:14:48.923Z,5756
2017-07-27T13:15:48.965Z,5912
2017-07-27T13:16:49.003Z,6404
2017-07-27T13:17:49.033Z,6848
2017-07-27T13:18:49.084Z,7152
2017-07-27T13:19:49.138Z,6976
2017-07-27T13:20:49.172Z,6472
2017-07-27T13:21:49.215Z,5544
2017-07-27T13:22:49.213Z,5784
2017-07-27T13:23:49.264Z,5932
2017-07-27T13:24:49.324Z,6276
2017-07-27T13:25:49.311Z,6704
2017-07-27T13:26:49.399Z,6740
2017-07-27T13:27:49.415Z,6932
2017-07-27T13:28:49.464Z,7104
2017-07-27T13:29:49.487Z,6728
2017-07-27T13:30:49.539Z,7324
2017-07-27T13:31:50.210Z,7500
2017-07-27T13:32:49.604Z,7220